Terminal Aerodrome Forecast
Issued by NWS

Home | Current Version | Previous Version | Text Only | Print | Product List | Glossary On
Versions: 1 2 3 4 5 6 7 8 9 10 11 12 13 14 15 16 17 18 19 20 21 22 23 24 25 26 27 28 29 30 31 32
000
FTUS45 KRIW 251601 AAA
TAFPNA
TAF AMD
KPNA 251601Z 2516/2612 30006KT 6SM -RASN SCT012 OVC025
      TEMPO 2516/2519 2SM -SN OVC012
     FM252200 31011KT P6SM VCSH SCT020 BKN035
     FM260400 30010KT P6SM SCT080
      AMD LTD TO CLD VIS AND WIND=

USA.gov is the U.S. government's official web portal to all federal, state and local government web resources and services.